Edmonton City Centre Airport, Alberta

Past 24 Hour Conditions

Date / Time
(MDT)
Conditions Temp
(°C)
Humidity
(%)
Dew Point
(°C)
Wind
(km/h)
Pressure
(kPa)
Visibility
(km)
22 October 2014
17:00 Sunny 15 34 0 SSE 26 100.3 15
16:00 Sunny 16 32 -1 SSE 22 gust 37 100.3 15
15:00 Sunny 16 31 -1 S 32 gust 48 100.3 15
14:00 Sunny 17   32 0 S 28 gust 39 100.3 15
13:00 Sunny 16 36 0 SE 24 gust 37 100.3 15
12:00 Sunny 13 43 0 S 24 100.5 15
11:00 Sunny 11 52 2 SE 19 100.5 15
10:00 Sunny 8 60 1 S 19 100.6 15
9:00 Sunny 6 73 1 SSE 13 100.6 15
8:00 Clear 4 79 1 SSE 9 100.7 15
7:00 Clear 3   84 1 ESE 4 100.7 15
6:00 Clear 4 83 2 SSW 7 100.7 15
5:00 Clear 4 86 1 ESE 11 100.7 15
4:00 Clear 4 86 2 calm 100.7 15
3:00 Clear 3   93 2 SSE 4 100.7 15
2:00 Clear 3   90 2 calm 100.7 15
1:00 Clear 5 84 2 SSW 4 100.7 15
00:00 Clear 5 80 2 S 6 100.7 15
21 October 2014
23:00 Clear 7 78 3 SW 6 100.7 15
22:00 Clear 4 80 1 SSW 6 100.7 15
21:00 Clear 7 77 3 calm 100.7 15
20:00 Clear 8 72 3 calm 100.7 15
19:00 Clear 11 62 4 WSW 4 100.6 15
18:00 Sunny 13 55 4 SSW 4 100.6 15
17:00 Sunny 14 52 4 W 7 100.5 15
N/A Not available
↑ Highest temperature
↓ Lowest temperature

If you require additional historical weather information, please visit Climate Data Online.

Date modified: